sensor_id;sensor_type;location;lat;lon;timestamp;pressure;altitude;pressure_sealevel;temperature;humidity
74045;BME280;62389;51.412;5.436;2023-02-20T00:00:22;102501.56;;;4.39;92.40
74045;BME280;62389;51.412;5.436;2023-02-20T00:02:49;102509.38;;;4.46;92.18
74045;BME280;62389;51.412;5.436;2023-02-20T00:05:15;102505.09;;;4.49;92.40
74045;BME280;62389;51.412;5.436;2023-02-20T00:07:41;102492.16;;;4.51;92.25
74045;BME280;62389;51.412;5.436;2023-02-20T00:10:08;102502.56;;;4.52;91.98
74045;BME280;62389;51.412;5.436;2023-02-20T00:12:33;102510.31;;;4.52;92.26
74045;BME280;62389;51.412;5.436;2023-02-20T00:14:59;102511.19;;;4.53;92.09
74045;BME280;62389;51.412;5.436;2023-02-20T00:17:24;102507.72;;;4.54;92.23
74045;BME280;62389;51.412;5.436;2023-02-20T00:19:50;102510.31;;;4.54;92.15
74045;BME280;62389;51.412;5.436;2023-02-20T00:22:15;102513.78;;;4.53;91.58
74045;BME280;62389;51.412;5.436;2023-02-20T00:24:41;102509.41;;;4.50;91.88
74045;BME280;62389;51.412;5.436;2023-02-20T00:27:06;102503.38;;;4.48;91.78
74045;BME280;62389;51.412;5.436;2023-02-20T00:29:32;102493.00;;;4.48;92.28
74045;BME280;62389;51.412;5.436;2023-02-20T00:31:58;102493.88;;;4.49;91.63
74045;BME280;62389;51.412;5.436;2023-02-20T00:34:26;102504.25;;;4.49;91.79
74045;BME280;62389;51.412;5.436;2023-02-20T00:36:52;102491.28;;;4.50;92.13
74045;BME280;62389;51.412;5.436;2023-02-20T00:39:17;102483.50;;;4.50;92.13
74045;BME280;62389;51.412;5.436;2023-02-20T00:41:43;102485.25;;;4.51;92.20
74045;BME280;62389;51.412;5.436;2023-02-20T00:44:08;102474.88;;;4.51;91.79
74045;BME280;62389;51.412;5.436;2023-02-20T00:46:33;102465.38;;;4.50;91.92
74045;BME280;62389;51.412;5.436;2023-02-20T00:48:59;102461.09;;;4.52;92.49
74045;BME280;62389;51.412;5.436;2023-02-20T00:51:24;102458.50;;;4.52;91.87
74045;BME280;62389;51.412;5.436;2023-02-20T00:53:50;102455.91;;;4.52;92.07
74045;BME280;62389;51.412;5.436;2023-02-20T00:56:15;102458.50;;;4.52;92.48
74045;BME280;62389;51.412;5.436;2023-02-20T00:58:41;102455.03;;;4.53;92.31
74045;BME280;62389;51.412;5.436;2023-02-20T01:01:06;102448.13;;;4.55;92.45
74045;BME280;62389;51.412;5.436;2023-02-20T01:03:31;102436.06;;;4.57;92.66
74045;BME280;62389;51.412;5.436;2023-02-20T01:05:57;102435.22;;;4.57;92.78
74045;BME280;62389;51.412;5.436;2023-02-20T01:08:23;102424.84;;;4.58;92.58
74045;BME280;62389;51.412;5.436;2023-02-20T01:10:48;102421.38;;;4.58;92.79
74045;BME280;62389;51.412;5.436;2023-02-20T01:13:14;102415.34;;;4.59;92.96
74045;BME280;62389;51.412;5.436;2023-02-20T01:15:39;102416.22;;;4.61;92.23
74045;BME280;62389;51.412;5.436;2023-02-20T01:18:04;102418.81;;;4.59;92.47
74045;BME280;62389;51.412;5.436;2023-02-20T01:20:30;102433.47;;;4.59;92.63
74045;BME280;62389;51.412;5.436;2023-02-20T01:22:56;102433.47;;;4.57;92.70
74045;BME280;62389;51.412;5.436;2023-02-20T01:25:21;102437.78;;;4.55;93.08
74045;BME280;62389;51.412;5.436;2023-02-20T01:27:47;102443.81;;;4.56;92.24
74045;BME280;62389;51.412;5.436;2023-02-20T01:30:12;102443.81;;;4.54;92.95
74045;BME280;62389;51.412;5.436;2023-02-20T01:32:37;102439.50;;;4.53;92.22
74045;BME280;62389;51.412;5.436;2023-02-20T01:35:03;102442.94;;;4.52;92.74
74045;BME280;62389;51.412;5.436;2023-02-20T01:37:28;102442.06;;;4.50;92.68
74045;BME280;62389;51.412;5.436;2023-02-20T01:39:54;102446.38;;;4.48;92.45
74045;BME280;62389;51.412;5.436;2023-02-20T01:42:21;102432.53;;;4.46;92.74
74045;BME280;62389;51.412;5.436;2023-02-20T01:44:48;102436.84;;;4.44;92.58
74045;BME280;62389;51.412;5.436;2023-02-20T01:47:23;102434.25;;;4.44;92.55
74045;BME280;62389;51.412;5.436;2023-02-20T01:49:58;102426.47;;;4.44;92.86
74045;BME280;62389;51.412;5.436;2023-02-20T01:52:27;102417.81;;;4.40;93.08
74045;BME280;62389;51.412;5.436;2023-02-20T01:54:58;102424.72;;;4.38;92.98
74045;BME280;62389;51.412;5.436;2023-02-20T01:57:28;102421.25;;;4.38;92.88
74045;BME280;62389;51.412;5.436;2023-02-20T02:00:00;102422.13;;;4.37;93.55
74045;BME280;62389;51.412;5.436;2023-02-20T02:02:30;102417.75;;;4.34;93.55
74045;BME280;62389;51.412;5.436;2023-02-20T02:04:56;102411.69;;;4.31;93.34
74045;BME280;62389;51.412;5.436;2023-02-20T02:07:22;102406.50;;;4.28;93.77
74045;BME280;62389;51.412;5.436;2023-02-20T02:09:52;102402.19;;;4.28;93.33
74045;BME280;62389;51.412;5.436;2023-02-20T02:12:19;102386.66;;;4.27;93.47
74045;BME280;62389;51.412;5.436;2023-02-20T02:14:45;102383.19;;;4.28;93.22
74045;BME280;62389;51.412;5.436;2023-02-20T02:20:13;102371.03;;;4.21;94.71
74045;BME280;62389;51.412;5.436;2023-02-20T02:28:35;102352.91;;;4.18;94.87
74045;BME280;62389;51.412;5.436;2023-02-20T02:34:43;102341.66;;;4.15;94.94
74045;BME280;62389;51.412;5.436;2023-02-20T02:37:49;102335.63;;;4.20;93.76
74045;BME280;62389;51.412;5.436;2023-02-20T02:48:20;102330.56;;;4.32;94.25
74045;BME280;62389;51.412;5.436;2023-02-20T02:50:48;102332.28;;;4.33;94.85
74045;BME280;62389;51.412;5.436;2023-02-20T02:53:16;102339.22;;;4.37;95.03
74045;BME280;62389;51.412;5.436;2023-02-20T02:55:42;102336.63;;;4.40;95.95
74045;BME280;62389;51.412;5.436;2023-02-20T02:58:07;102332.34;;;4.45;94.92
74045;BME280;62389;51.412;5.436;2023-02-20T03:00:48;102329.78;;;4.50;95.83
74045;BME280;62389;51.412;5.436;2023-02-20T03:03:23;102318.56;;;4.55;95.44
74045;BME280;62389;51.412;5.436;2023-02-20T03:05:54;102311.69;;;4.60;95.08
74045;BME280;62389;51.412;5.436;2023-02-20T03:11:17;102297.91;;;4.71;95.17
74045;BME280;62389;51.412;5.436;2023-02-20T03:14:11;102298.75;;;4.71;95.37
74045;BME280;62389;51.412;5.436;2023-02-20T03:17:08;102300.50;;;4.77;94.77
74045;BME280;62389;51.412;5.436;2023-02-20T03:19:43;102291.88;;;4.76;95.59
74045;BME280;62389;51.412;5.436;2023-02-20T03:24:49;102303.16;;;4.83;95.45
74045;BME280;62389;51.412;5.436;2023-02-20T03:27:45;102297.09;;;4.87;95.23
74045;BME280;62389;51.412;5.436;2023-02-20T03:30:18;102297.97;;;4.89;95.31
74045;BME280;62389;51.412;5.436;2023-02-20T03:32:45;102291.06;;;4.91;95.39
74045;BME280;62389;51.412;5.436;2023-02-20T03:35:31;102298.88;;;4.92;95.23
74045;BME280;62389;51.412;5.436;2023-02-20T03:38:17;102295.41;;;4.95;95.47
74045;BME280;62389;51.412;5.436;2023-02-20T03:41:04;102292.81;;;4.98;94.97
74045;BME280;62389;51.412;5.436;2023-02-20T03:43:50;102299.75;;;4.98;95.78
74045;BME280;62389;51.412;5.436;2023-02-20T03:46:20;102301.47;;;4.97;95.64
74045;BME280;62389;51.412;5.436;2023-02-20T03:51:19;102298.03;;;5.04;95.37
74045;BME280;62389;51.412;5.436;2023-02-20T03:53:45;102293.69;;;5.06;95.44
74045;BME280;62389;51.412;5.436;2023-02-20T03:56:15;102293.69;;;5.06;95.55
74045;BME280;62389;51.412;5.436;2023-02-20T03:58:47;102298.91;;;5.08;95.11
74045;BME280;62389;51.412;5.436;2023-02-20T04:01:16;102299.75;;;5.07;95.10
74045;BME280;62389;51.412;5.436;2023-02-20T04:03:46;102298.88;;;5.11;94.94
74045;BME280;62389;51.412;5.436;2023-02-20T04:06:13;102291.13;;;5.09;94.94
74045;BME280;62389;51.412;5.436;2023-02-20T04:08:41;102293.72;;;5.08;94.57
74045;BME280;62389;51.412;5.436;2023-02-20T04:11:25;102283.34;;;5.08;94.55
74045;BME280;62389;51.412;5.436;2023-02-20T04:13:53;102285.06;;;5.07;94.82
74045;BME280;62389;51.412;5.436;2023-02-20T04:16:20;102289.38;;;5.11;94.14
74045;BME280;62389;51.412;5.436;2023-02-20T04:18:46;102293.72;;;5.12;94.27
74045;BME280;62389;51.412;5.436;2023-02-20T04:21:19;102288.53;;;5.08;94.64
74045;BME280;62389;51.412;5.436;2023-02-20T04:23:48;102297.16;;;5.07;94.65
74045;BME280;62389;51.412;5.436;2023-02-20T04:26:18;102296.31;;;5.09;94.28
74045;BME280;62389;51.412;5.436;2023-02-20T04:28:45;102296.31;;;5.09;94.41
74045;BME280;62389;51.412;5.436;2023-02-20T04:31:13;102296.28;;;5.11;94.50
74045;BME280;62389;51.412;5.436;2023-02-20T04:33:39;102304.09;;;5.15;94.57
74045;BME280;62389;51.412;5.436;2023-02-20T04:36:05;102294.59;;;5.14;94.31
74045;BME280;62389;51.412;5.436;2023-02-20T04:38:31;102304.94;;;5.16;94.50
74045;BME280;62389;51.412;5.436;2023-02-20T04:40:56;102304.97;;;5.19;94.58
74045;BME280;62389;51.412;5.436;2023-02-20T04:43:22;102312.78;;;5.22;94.43
74045;BME280;62389;51.412;5.436;2023-02-20T04:45:47;102300.66;;;5.29;93.73
74045;BME280;62389;51.412;5.436;2023-02-20T04:48:12;102292.03;;;5.28;94.30
74045;BME280;62389;51.412;5.436;2023-02-20T04:50:38;102305.84;;;5.26;94.29
74045;BME280;62389;51.412;5.436;2023-02-20T04:53:05;102302.38;;;5.27;94.62
74045;BME280;62389;51.412;5.436;2023-02-20T04:55:30;102300.66;;;5.29;94.42
74045;BME280;62389;51.412;5.436;2023-02-20T04:57:55;102301.53;;;5.29;94.39
74045;BME280;62389;51.412;5.436;2023-02-20T05:00:23;102316.22;;;5.29;94.48
74045;BME280;62389;51.412;5.436;2023-02-20T05:02:49;102292.03;;;5.33;94.14
74045;BME280;62389;51.412;5.436;2023-02-20T05:05:19;102300.66;;;5.36;93.86
74045;BME280;62389;51.412;5.436;2023-02-20T05:07:45;102294.63;;;5.37;93.92
74045;BME280;62389;51.412;5.436;2023-02-20T05:10:18;102296.34;;;5.40;93.96
74045;BME280;62389;51.412;5.436;2023-02-20T05:12:44;102305.00;;;5.45;93.80
74045;BME280;62389;51.412;5.436;2023-02-20T05:15:10;102301.53;;;5.46;93.75
74045;BME280;62389;51.412;5.436;2023-02-20T05:17:36;102308.47;;;5.50;93.50
74045;BME280;62389;51.412;5.436;2023-02-20T05:20:02;102311.94;;;5.51;93.38
74045;BME280;62389;51.412;5.436;2023-02-20T05:22:27;102317.13;;;5.51;93.45
74045;BME280;62389;51.412;5.436;2023-02-20T05:24:52;102302.41;;;5.54;93.31
74045;BME280;62389;51.412;5.436;2023-02-20T05:27:20;102298.09;;;5.53;93.24
74045;BME280;62389;51.412;5.436;2023-02-20T05:29:46;102309.34;;;5.54;93.37
74045;BME280;62389;51.412;5.436;2023-02-20T05:32:12;102308.47;;;5.56;93.58
74045;BME280;62389;51.412;5.436;2023-02-20T05:34:37;102308.47;;;5.59;93.34
74045;BME280;62389;51.412;5.436;2023-02-20T05:37:02;102298.94;;;5.61;93.04
74045;BME280;62389;51.412;5.436;2023-02-20T05:39:28;102302.41;;;5.60;93.16
74045;BME280;62389;51.412;5.436;2023-02-20T05:41:53;102308.50;;;5.62;93.21
74045;BME280;62389;51.412;5.436;2023-02-20T05:44:18;102309.34;;;5.64;93.09
74045;BME280;62389;51.412;5.436;2023-02-20T05:46:44;102305.88;;;5.64;93.20
74045;BME280;62389;51.412;5.436;2023-02-20T05:49:10;102308.47;;;5.65;93.18
74045;BME280;62389;51.412;5.436;2023-02-20T05:51:35;102307.63;;;5.68;92.59
74045;BME280;62389;51.412;5.436;2023-02-20T05:54:02;102311.09;;;5.68;92.88
74045;BME280;62389;51.412;5.436;2023-02-20T05:56:28;102319.72;;;5.70;92.80
74045;BME280;62389;51.412;5.436;2023-02-20T05:58:54;102311.94;;;5.70;92.97
74045;BME280;62389;51.412;5.436;2023-02-20T06:01:25;102308.47;;;5.71;93.00
74045;BME280;62389;51.412;5.436;2023-02-20T06:03:51;102311.06;;;5.71;92.48
74045;BME280;62389;51.412;5.436;2023-02-20T06:06:18;102309.34;;;5.74;92.46
74045;BME280;62389;51.412;5.436;2023-02-20T06:08:43;102307.63;;;5.74;92.68
74045;BME280;62389;51.412;5.436;2023-02-20T06:11:10;102321.44;;;5.76;92.61
74045;BME280;62389;51.412;5.436;2023-02-20T06:13:38;102312.78;;;5.77;92.16
74045;BME280;62389;51.412;5.436;2023-02-20T06:16:04;102315.41;;;5.80;92.08
74045;BME280;62389;51.412;5.436;2023-02-20T06:18:30;102313.66;;;5.81;91.91
74045;BME280;62389;51.412;5.436;2023-02-20T06:20:55;102318.84;;;5.81;91.89
74045;BME280;62389;51.412;5.436;2023-02-20T06:23:21;102319.72;;;5.84;91.68
74045;BME280;62389;51.412;5.436;2023-02-20T06:25:46;102311.06;;;5.82;91.45
74045;BME280;62389;51.412;5.436;2023-02-20T06:28:11;102321.47;;;5.85;92.06
74045;BME280;62389;51.412;5.436;2023-02-20T06:30:37;102311.06;;;5.90;91.27
74045;BME280;62389;51.412;5.436;2023-02-20T06:33:02;102323.19;;;5.91;91.25
74045;BME280;62389;51.412;5.436;2023-02-20T06:35:27;102311.97;;;5.95;90.68
74045;BME280;62389;51.412;5.436;2023-02-20T06:37:53;102312.84;;;5.92;91.11
74045;BME280;62389;51.412;5.436;2023-02-20T06:40:18;102302.41;;;5.89;90.87
74045;BME280;62389;51.412;5.436;2023-02-20T06:42:44;102302.41;;;5.91;91.19
74045;BME280;62389;51.412;5.436;2023-02-20T06:45:09;102305.91;;;5.96;91.03
74045;BME280;62389;51.412;5.436;2023-02-20T06:47:35;102302.47;;;5.92;90.81
74045;BME280;62389;51.412;5.436;2023-02-20T06:50:01;102304.16;;;5.95;90.38
74045;BME280;62389;51.412;5.436;2023-02-20T06:52:26;102299.00;;;5.93;90.63
74045;BME280;62389;51.412;5.436;2023-02-20T06:54:52;102301.56;;;5.95;90.24
74045;BME280;62389;51.412;5.436;2023-02-20T06:57:18;102300.72;;;5.99;90.03
74045;BME280;62389;51.412;5.436;2023-02-20T06:59:44;102310.22;;;5.97;89.84
74045;BME280;62389;51.412;5.436;2023-02-20T07:02:12;102317.16;;;5.98;89.83
74045;BME280;62389;51.412;5.436;2023-02-20T07:04:38;102314.56;;;5.98;89.77
74045;BME280;62389;51.412;5.436;2023-02-20T07:07:04;102318.91;;;5.97;89.52
74045;BME280;62389;51.412;5.436;2023-02-20T07:09:29;102316.28;;;5.99;89.57
74045;BME280;62389;51.412;5.436;2023-02-20T07:11:55;102310.22;;;6.05;89.08
74045;BME280;62389;51.412;5.436;2023-02-20T07:14:21;102306.75;;;6.01;88.90
74045;BME280;62389;51.412;5.436;2023-02-20T07:16:47;102317.16;;;6.03;89.14
74045;BME280;62389;51.412;5.436;2023-02-20T07:19:12;102317.16;;;6.04;89.09
74045;BME280;62389;51.412;5.436;2023-02-20T07:21:38;102317.16;;;6.04;88.80
74045;BME280;62389;51.412;5.436;2023-02-20T07:24:03;102318.00;;;6.09;88.85
74045;BME280;62389;51.412;5.436;2023-02-20T07:26:29;102317.13;;;6.07;89.00
74045;BME280;62389;51.412;5.436;2023-02-20T07:28:55;102324.06;;;6.11;88.38
74045;BME280;62389;51.412;5.436;2023-02-20T07:31:25;102313.66;;;6.11;89.13
74045;BME280;62389;51.412;5.436;2023-02-20T07:33:50;102318.00;;;6.11;88.69
74045;BME280;62389;51.412;5.436;2023-02-20T07:36:16;102327.53;;;6.13;88.66
74045;BME280;62389;51.412;5.436;2023-02-20T07:38:42;102317.13;;;6.13;88.36
74045;BME280;62389;51.412;5.436;2023-02-20T07:41:08;102321.44;;;6.16;89.02
74045;BME280;62389;51.412;5.436;2023-02-20T07:43:34;102313.63;;;6.17;88.94
74045;BME280;62389;51.412;5.436;2023-02-20T07:45:59;102313.66;;;6.20;88.44
74045;BME280;62389;51.412;5.436;2023-02-20T07:48:25;102300.66;;;6.20;88.52
74045;BME280;62389;51.412;5.436;2023-02-20T07:50:50;102311.03;;;6.22;88.74
74045;BME280;62389;51.412;5.436;2023-02-20T07:53:18;102311.94;;;6.22;88.42
74045;BME280;62389;51.412;5.436;2023-02-20T07:55:44;102319.72;;;6.22;88.84
74045;BME280;62389;51.412;5.436;2023-02-20T07:58:09;102316.22;;;6.27;88.92
74045;BME280;62389;51.412;5.436;2023-02-20T08:00:34;102311.03;;;6.27;88.88
74045;BME280;62389;51.412;5.436;2023-02-20T08:03:00;102316.25;;;6.28;88.21
74045;BME280;62389;51.412;5.436;2023-02-20T08:05:26;102311.88;;;6.32;89.14
74045;BME280;62389;51.412;5.436;2023-02-20T08:07:52;102317.09;;;6.35;88.58
74045;BME280;62389;51.412;5.436;2023-02-20T08:10:21;102311.91;;;6.38;88.46
74045;BME280;62389;51.412;5.436;2023-02-20T08:12:49;102311.91;;;6.38;88.51
74045;BME280;62389;51.412;5.436;2023-02-20T08:15:16;102311.00;;;6.40;88.56
74045;BME280;62389;51.412;5.436;2023-02-20T08:17:42;102310.13;;;6.41;87.79
74045;BME280;62389;51.412;5.436;2023-02-20T08:20:08;102313.59;;;6.45;88.72
74045;BME280;62389;51.412;5.436;2023-02-20T08:22:33;102316.19;;;6.46;88.27
74045;BME280;62389;51.412;5.436;2023-02-20T08:24:59;102319.63;;;6.52;88.22
74045;BME280;62389;51.412;5.436;2023-02-20T08:27:25;102310.97;;;6.53;87.88
74045;BME280;62389;51.412;5.436;2023-02-20T08:29:51;102308.34;;;6.56;87.57
74045;BME280;62389;51.412;5.436;2023-02-20T08:32:17;102308.34;;;6.59;87.51
74045;BME280;62389;51.412;5.436;2023-02-20T08:34:42;102313.53;;;6.60;87.94
74045;BME280;62389;51.412;5.436;2023-02-20T08:37:07;102309.19;;;6.65;87.72
74045;BME280;62389;51.412;5.436;2023-02-20T08:39:34;102308.31;;;6.65;87.62
74045;BME280;62389;51.412;5.436;2023-02-20T08:42:00;102299.66;;;6.66;87.44
74045;BME280;62389;51.412;5.436;2023-02-20T08:44:25;102309.19;;;6.68;87.61
74045;BME280;62389;51.412;5.436;2023-02-20T08:46:50;102304.84;;;6.69;87.37
74045;BME280;62389;51.412;5.436;2023-02-20T08:49:17;102299.63;;;6.70;87.52
74045;BME280;62389;51.412;5.436;2023-02-20T08:51:47;102308.28;;;6.72;87.32
74045;BME280;62389;51.412;5.436;2023-02-20T08:54:14;102298.78;;;6.73;87.31
74045;BME280;62389;51.412;5.436;2023-02-20T08:56:41;102303.06;;;6.75;87.58
74045;BME280;62389;51.412;5.436;2023-02-20T08:59:06;102303.06;;;6.79;87.70
74045;BME280;62389;51.412;5.436;2023-02-20T09:01:32;102299.56;;;6.83;87.20
74045;BME280;62389;51.412;5.436;2023-02-20T09:03:58;102306.50;;;6.85;87.46
74045;BME280;62389;51.412;5.436;2023-02-20T09:06:23;102315.16;;;6.89;87.35
74045;BME280;62389;51.412;5.436;2023-02-20T09:08:51;102313.38;;;6.92;86.97
74045;BME280;62389;51.412;5.436;2023-02-20T09:11:16;102316.00;;;6.94;86.97
74045;BME280;62389;51.412;5.436;2023-02-20T09:13:45;102309.06;;;6.94;86.84
74045;BME280;62389;51.412;5.436;2023-02-20T09:16:16;102308.19;;;6.91;87.78
74045;BME280;62389;51.412;5.436;2023-02-20T09:18:43;102312.53;;;6.93;87.65
74045;BME280;62389;51.412;5.436;2023-02-20T09:21:14;102309.91;;;6.98;87.13
74045;BME280;62389;51.412;5.436;2023-02-20T09:23:40;102314.25;;;6.99;86.63
74045;BME280;62389;51.412;5.436;2023-02-20T09:26:05;102317.66;;;7.03;87.04
74045;BME280;62389;51.412;5.436;2023-02-20T09:28:31;102302.91;;;7.08;86.73
74045;BME280;62389;51.412;5.436;2023-02-20T09:30:56;102315.09;;;7.04;86.91
74045;BME280;62389;51.412;5.436;2023-02-20T09:33:24;102306.41;;;7.02;86.63
74045;BME280;62389;51.412;5.436;2023-02-20T09:35:50;102302.06;;;7.03;87.55
74045;BME280;62389;51.412;5.436;2023-02-20T09:38:16;102307.25;;;7.07;87.57
74045;BME280;62389;51.412;5.436;2023-02-20T09:40:43;102310.69;;;7.11;86.68
74045;BME280;62389;51.412;5.436;2023-02-20T09:46:05;102309.84;;;7.13;86.46
74045;BME280;62389;51.412;5.436;2023-02-20T09:49:24;102308.06;;;7.12;86.42
74045;BME280;62389;51.412;5.436;2023-02-20T09:51:27;102307.22;;;7.13;87.08
74045;BME280;62389;51.412;5.436;2023-02-20T09:54:07;102301.16;;;7.14;87.38
74045;BME280;62389;51.412;5.436;2023-02-20T09:56:37;102301.13;;;7.19;87.47
74045;BME280;62389;51.412;5.436;2023-02-20T09:59:12;102298.50;;;7.20;86.81
74045;BME280;62389;51.412;5.436;2023-02-20T10:01:45;102290.66;;;7.22;87.01
74045;BME280;62389;51.412;5.436;2023-02-20T10:04:19;102293.25;;;7.28;86.59
74045;BME280;62389;51.412;5.436;2023-02-20T10:06:46;102289.78;;;7.29;86.71
74045;BME280;62389;51.412;5.436;2023-02-20T10:09:15;102270.66;;;7.32;86.99
74045;BME280;62389;51.412;5.436;2023-02-20T10:11:45;102269.78;;;7.34;86.69
74045;BME280;62389;51.412;5.436;2023-02-20T10:16:58;102261.94;;;7.39;87.33
74045;BME280;62389;51.412;5.436;2023-02-20T10:19:35;102270.59;;;7.41;87.22
74045;BME280;62389;51.412;5.436;2023-02-20T10:30:04;102293.19;;;7.39;86.75
74045;BME280;62389;51.412;5.436;2023-02-20T10:35:09;102297.47;;;7.41;86.88
74045;BME280;62389;51.412;5.436;2023-02-20T10:37:41;102300.97;;;7.40;87.03
74045;BME280;62389;51.412;5.436;2023-02-20T10:40:38;102289.66;;;7.46;87.33
74045;BME280;62389;51.412;5.436;2023-02-20T10:43:15;102285.28;;;7.48;87.12
74045;BME280;62389;51.412;5.436;2023-02-20T10:46:07;102300.88;;;7.51;87.57
74045;BME280;62389;51.412;5.436;2023-02-20T10:48:37;102292.19;;;7.53;86.84
74045;BME280;62389;51.412;5.436;2023-02-20T10:51:14;102300.00;;;7.55;87.30
74045;BME280;62389;51.412;5.436;2023-02-20T10:54:03;102295.59;;;7.60;86.80
74045;BME280;62389;51.412;5.436;2023-02-20T10:56:45;102304.31;;;7.59;86.79
74045;BME280;62389;51.412;5.436;2023-02-20T10:59:27;102305.22;;;7.53;87.11
74045;BME280;62389;51.412;5.436;2023-02-20T11:01:55;102306.06;;;7.52;86.84
74045;BME280;62389;51.412;5.436;2023-02-20T11:04:33;102291.34;;;7.50;87.50
74045;BME280;62389;51.412;5.436;2023-02-20T11:07:04;102298.25;;;7.52;87.47
74045;BME280;62389;51.412;5.436;2023-02-20T11:09:31;102297.38;;;7.55;86.75
74045;BME280;62389;51.412;5.436;2023-02-20T11:11:57;102296.53;;;7.55;87.32
74045;BME280;62389;51.412;5.436;2023-02-20T11:14:31;102301.75;;;7.50;87.89
74045;BME280;62389;51.412;5.436;2023-02-20T11:17:02;102300.88;;;7.52;87.41
74045;BME280;62389;51.412;5.436;2023-02-20T11:19:41;102299.13;;;7.51;88.12
74045;BME280;62389;51.412;5.436;2023-02-20T11:22:08;102293.94;;;7.51;87.48
74045;BME280;62389;51.412;5.436;2023-02-20T11:24:35;102293.94;;;7.55;88.04
74045;BME280;62389;51.412;5.436;2023-02-20T11:29:39;102289.56;;;7.57;88.12
74045;BME280;62389;51.412;5.436;2023-02-20T11:32:37;102294.81;;;7.53;87.66
74045;BME280;62389;51.412;5.436;2023-02-20T11:40:17;102268.78;;;7.53;88.42
74045;BME280;62389;51.412;5.436;2023-02-20T11:42:45;102265.31;;;7.53;88.34
74045;BME280;62389;51.412;5.436;2023-02-20T11:45:19;102276.56;;;7.55;88.44
74045;BME280;62389;51.412;5.436;2023-02-20T11:48:05;102271.38;;;7.53;88.25
74045;BME280;62389;51.412;5.436;2023-02-20T11:50:42;102265.25;;;7.59;88.59
74045;BME280;62389;51.412;5.436;2023-02-20T11:53:24;102279.13;;;7.57;88.66
74045;BME280;62389;51.412;5.436;2023-02-20T11:56:14;102282.63;;;7.52;88.86
74045;BME280;62389;51.412;5.436;2023-02-20T11:58:41;102272.22;;;7.54;88.49
74045;BME280;62389;51.412;5.436;2023-02-20T12:01:07;102261.78;;;7.56;88.84
74045;BME280;62389;51.412;5.436;2023-02-20T12:03:56;102243.56;;;7.59;88.78
74045;BME280;62389;51.412;5.436;2023-02-20T12:06:44;102248.75;;;7.57;88.54
74045;BME280;62389;51.412;5.436;2023-02-20T12:09:19;102240.09;;;7.58;89.01
74045;BME280;62389;51.412;5.436;2023-02-20T12:11:48;102237.44;;;7.61;89.07
74045;BME280;62389;51.412;5.436;2023-02-20T12:14:16;102230.50;;;7.62;88.94
74045;BME280;62389;51.412;5.436;2023-02-20T12:17:20;102226.09;;;7.68;88.31
74045;BME280;62389;51.412;5.436;2023-02-20T12:19:57;102220.00;;;7.69;88.57
74045;BME280;62389;51.412;5.436;2023-02-20T12:22:34;102220.75;;;7.81;88.49
74045;BME280;62389;51.412;5.436;2023-02-20T12:28:06;102205.13;;;7.84;88.47
74045;BME280;62389;51.412;5.436;2023-02-20T12:35:53;102204.13;;;7.94;88.25
74045;BME280;62389;51.412;5.436;2023-02-20T12:38:27;102204.13;;;7.94;87.98
74045;BME280;62389;51.412;5.436;2023-02-20T12:41:08;102204.97;;;7.96;87.96
74045;BME280;62389;51.412;5.436;2023-02-20T12:46:49;102213.59;;;8.01;87.87
74045;BME280;62389;51.412;5.436;2023-02-20T12:54:59;102211.91;;;7.98;87.82
74045;BME280;62389;51.412;5.436;2023-02-20T13:00:50;102196.28;;;7.98;88.33
74045;BME280;62389;51.412;5.436;2023-02-20T13:02:55;102169.34;;;7.99;87.99
74045;BME280;62389;51.412;5.436;2023-02-20T13:05:25;102174.50;;;8.04;88.07
74045;BME280;62389;51.412;5.436;2023-02-20T13:07:57;102180.50;;;8.08;87.65
74045;BME280;62389;51.412;5.436;2023-02-20T13:10:42;102185.72;;;8.08;87.64
74045;BME280;62389;51.412;5.436;2023-02-20T13:13:09;102171.84;;;8.07;86.99
74045;BME280;62389;51.412;5.436;2023-02-20T13:15:57;102160.56;;;8.05;87.66
74045;BME280;62389;51.412;5.436;2023-02-20T13:21:18;102155.22;;;8.16;87.75
74045;BME280;62389;51.412;5.436;2023-02-20T13:23:46;102136.97;;;8.19;87.21
74045;BME280;62389;51.412;5.436;2023-02-20T13:29:12;102121.28;;;8.20;87.02
74045;BME280;62389;51.412;5.436;2023-02-20T13:47:26;102135.94;;;8.29;87.28
74045;BME280;62389;51.412;5.436;2023-02-20T13:49:54;102149.84;;;8.28;86.62
74045;BME280;62389;51.412;5.436;2023-02-20T13:52:39;102149.88;;;8.26;86.83
74045;BME280;62389;51.412;5.436;2023-02-20T13:57:47;102142.97;;;8.22;86.70
74045;BME280;62389;51.412;5.436;2023-02-20T14:02:54;102129.09;;;8.23;87.02
74045;BME280;62389;51.412;5.436;2023-02-20T14:05:28;102116.03;;;8.23;86.37
74045;BME280;62389;51.412;5.436;2023-02-20T14:07:55;102098.72;;;8.19;85.71
74045;BME280;62389;51.412;5.436;2023-02-20T14:10:33;102104.75;;;8.21;86.21
74045;BME280;62389;51.412;5.436;2023-02-20T14:13:00;102103.00;;;8.22;86.20
74045;BME280;62389;51.412;5.436;2023-02-20T14:15:27;102109.19;;;8.13;86.10
74045;BME280;62389;51.412;5.436;2023-02-20T14:17:55;102122.28;;;8.10;86.92
74045;BME280;62389;51.412;5.436;2023-02-20T14:20:31;102118.78;;;8.11;87.12
74045;BME280;62389;51.412;5.436;2023-02-20T14:23:28;102112.69;;;8.12;86.38
74045;BME280;62389;51.412;5.436;2023-02-20T14:25:59;102123.13;;;8.12;86.28
74045;BME280;62389;51.412;5.436;2023-02-20T14:28:28;102114.41;;;8.13;86.38
74045;BME280;62389;51.412;5.436;2023-02-20T14:31:18;102108.34;;;8.13;86.52
74045;BME280;62389;51.412;5.436;2023-02-20T14:33:45;102097.03;;;8.15;86.61
74045;BME280;62389;51.412;5.436;2023-02-20T14:37:20;102105.72;;;8.16;86.69
74045;BME280;62389;51.412;5.436;2023-02-20T14:42:00;102112.69;;;8.14;86.55
74045;BME280;62389;51.412;5.436;2023-02-20T14:44:27;102105.75;;;8.14;86.59
74045;BME280;62389;51.412;5.436;2023-02-20T14:46:57;102085.75;;;8.15;86.56
74045;BME280;62389;51.412;5.436;2023-02-20T14:49:27;102090.91;;;8.18;86.86
74045;BME280;62389;51.412;5.436;2023-02-20T14:52:18;102082.22;;;8.19;87.05
74045;BME280;62389;51.412;5.436;2023-02-20T14:54:56;102087.38;;;8.22;86.64